sensor_id;sensor_type;location;lat;lon;timestamp;temperature;humidity
27534;DHT22;14973;51.460;7.008;2022-07-29T00:01:16;19.30;98.10
27534;DHT22;14973;51.460;7.008;2022-07-29T00:03:42;19.20;97.80
27534;DHT22;14973;51.460;7.008;2022-07-29T00:06:07;19.20;98.00
27534;DHT22;14973;51.460;7.008;2022-07-29T00:08:33;19.10;98.00
27534;DHT22;14973;51.460;7.008;2022-07-29T00:10:59;19.10;98.10
27534;DHT22;14973;51.460;7.008;2022-07-29T00:13:24;19.10;98.30
27534;DHT22;14973;51.460;7.008;2022-07-29T00:15:50;19.00;98.50
27534;DHT22;14973;51.460;7.008;2022-07-29T00:18:15;19.00;98.40
27534;DHT22;14973;51.460;7.008;2022-07-29T00:20:41;19.00;98.50
27534;DHT22;14973;51.460;7.008;2022-07-29T00:23:07;19.00;98.60
27534;DHT22;14973;51.460;7.008;2022-07-29T00:25:32;19.00;98.70
27534;DHT22;14973;51.460;7.008;2022-07-29T00:27:58;19.00;98.70
27534;DHT22;14973;51.460;7.008;2022-07-29T00:30:23;19.00;98.80
27534;DHT22;14973;51.460;7.008;2022-07-29T00:32:49;19.00;98.60
27534;DHT22;14973;51.460;7.008;2022-07-29T00:35:15;19.00;98.70
27534;DHT22;14973;51.460;7.008;2022-07-29T00:37:59;18.90;98.70
27534;DHT22;14973;51.460;7.008;2022-07-29T00:40:24;18.90;98.90
27534;DHT22;14973;51.460;7.008;2022-07-29T00:42:51;18.90;99.40
27534;DHT22;14973;51.460;7.008;2022-07-29T00:45:17;18.90;99.10
27534;DHT22;14973;51.460;7.008;2022-07-29T00:47:44;18.80;99.20
27534;DHT22;14973;51.460;7.008;2022-07-29T00:50:11;18.80;99.30
27534;DHT22;14973;51.460;7.008;2022-07-29T00:52:38;18.80;99.20
27534;DHT22;14973;51.460;7.008;2022-07-29T00:55:07;18.80;99.40
27534;DHT22;14973;51.460;7.008;2022-07-29T00:57:34;18.70;99.50
27534;DHT22;14973;51.460;7.008;2022-07-29T01:00:00;18.70;99.60
27534;DHT22;14973;51.460;7.008;2022-07-29T01:02:26;18.60;99.80
27534;DHT22;14973;51.460;7.008;2022-07-29T01:04:52;18.60;99.90
27534;DHT22;14973;51.460;7.008;2022-07-29T01:07:18;18.60;99.90
27534;DHT22;14973;51.460;7.008;2022-07-29T01:09:45;18.60;99.90
27534;DHT22;14973;51.460;7.008;2022-07-29T01:12:15;18.60;99.90
27534;DHT22;14973;51.460;7.008;2022-07-29T01:14:42;18.50;99.90
27534;DHT22;14973;51.460;7.008;2022-07-29T01:17:17;18.50;99.90
27534;DHT22;14973;51.460;7.008;2022-07-29T01:19:52;18.50;99.90
27534;DHT22;14973;51.460;7.008;2022-07-29T01:22:24;18.50;99.90
27534;DHT22;14973;51.460;7.008;2022-07-29T01:30:09;18.40;99.90
27534;DHT22;14973;51.460;7.008;2022-07-29T01:32:38;18.40;99.90
27534;DHT22;14973;51.460;7.008;2022-07-29T01:35:24;18.40;99.90
27534;DHT22;14973;51.460;7.008;2022-07-29T01:38:02;18.30;99.90
27534;DHT22;14973;51.460;7.008;2022-07-29T01:40:39;18.30;99.90
27534;DHT22;14973;51.460;7.008;2022-07-29T01:43:10;18.40;99.90
27534;DHT22;14973;51.460;7.008;2022-07-29T01:46:01;18.30;99.90
27534;DHT22;14973;51.460;7.008;2022-07-29T01:48:47;18.30;99.90
27534;DHT22;14973;51.460;7.008;2022-07-29T01:51:19;18.30;99.90
27534;DHT22;14973;51.460;7.008;2022-07-29T01:56:43;18.30;99.90
27534;DHT22;14973;51.460;7.008;2022-07-29T01:59:11;18.20;99.90
27534;DHT22;14973;51.460;7.008;2022-07-29T02:01:39;18.20;99.90
27534;DHT22;14973;51.460;7.008;2022-07-29T02:04:08;18.10;99.90
27534;DHT22;14973;51.460;7.008;2022-07-29T02:06:37;18.20;99.90
27534;DHT22;14973;51.460;7.008;2022-07-29T02:09:04;18.20;99.90
27534;DHT22;14973;51.460;7.008;2022-07-29T02:11:32;18.10;99.90
27534;DHT22;14973;51.460;7.008;2022-07-29T02:14:00;18.10;99.90
27534;DHT22;14973;51.460;7.008;2022-07-29T02:16:29;18.10;99.90
27534;DHT22;14973;51.460;7.008;2022-07-29T02:18:58;18.00;99.90
27534;DHT22;14973;51.460;7.008;2022-07-29T02:21:25;18.00;99.90
27534;DHT22;14973;51.460;7.008;2022-07-29T02:23:54;18.00;99.90
27534;DHT22;14973;51.460;7.008;2022-07-29T02:26:22;17.90;99.90
27534;DHT22;14973;51.460;7.008;2022-07-29T02:28:51;17.90;99.90
27534;DHT22;14973;51.460;7.008;2022-07-29T02:31:19;18.00;99.90
27534;DHT22;14973;51.460;7.008;2022-07-29T02:33:48;17.90;99.90
27534;DHT22;14973;51.460;7.008;2022-07-29T02:36:14;17.90;99.90
27534;DHT22;14973;51.460;7.008;2022-07-29T02:38:42;18.00;99.90
27534;DHT22;14973;51.460;7.008;2022-07-29T02:41:31;18.00;99.90
27534;DHT22;14973;51.460;7.008;2022-07-29T02:44:13;18.00;99.90
27534;DHT22;14973;51.460;7.008;2022-07-29T02:51:51;17.90;99.90
27534;DHT22;14973;51.460;7.008;2022-07-29T02:54:46;17.90;99.90
27534;DHT22;14973;51.460;7.008;2022-07-29T02:57:33;17.80;99.90
27534;DHT22;14973;51.460;7.008;2022-07-29T03:00:06;17.90;99.90
27534;DHT22;14973;51.460;7.008;2022-07-29T03:02:36;17.90;99.90
27534;DHT22;14973;51.460;7.008;2022-07-29T03:05:03;17.90;99.90
27534;DHT22;14973;51.460;7.008;2022-07-29T03:07:31;17.90;99.90
27534;DHT22;14973;51.460;7.008;2022-07-29T03:09:57;17.80;99.90
27534;DHT22;14973;51.460;7.008;2022-07-29T03:12:23;17.80;99.90
27534;DHT22;14973;51.460;7.008;2022-07-29T03:14:50;17.80;99.90
27534;DHT22;14973;51.460;7.008;2022-07-29T03:17:16;17.80;99.90
27534;DHT22;14973;51.460;7.008;2022-07-29T03:19:42;17.80;99.90
27534;DHT22;14973;51.460;7.008;2022-07-29T03:22:08;17.80;99.90
27534;DHT22;14973;51.460;7.008;2022-07-29T03:24:36;17.80;99.90
27534;DHT22;14973;51.460;7.008;2022-07-29T03:27:03;17.80;99.90
27534;DHT22;14973;51.460;7.008;2022-07-29T03:29:29;17.80;99.90
27534;DHT22;14973;51.460;7.008;2022-07-29T03:31:55;17.80;99.90
27534;DHT22;14973;51.460;7.008;2022-07-29T03:34:21;17.80;99.90
27534;DHT22;14973;51.460;7.008;2022-07-29T03:36:47;17.80;99.90
27534;DHT22;14973;51.460;7.008;2022-07-29T03:39:20;17.80;99.90
27534;DHT22;14973;51.460;7.008;2022-07-29T03:41:49;17.70;99.90
27534;DHT22;14973;51.460;7.008;2022-07-29T03:44:16;17.80;99.90
27534;DHT22;14973;51.460;7.008;2022-07-29T03:46:43;17.70;99.90
27534;DHT22;14973;51.460;7.008;2022-07-29T03:49:11;17.70;99.90
27534;DHT22;14973;51.460;7.008;2022-07-29T03:51:37;17.60;99.90
27534;DHT22;14973;51.460;7.008;2022-07-29T03:54:04;17.60;99.90
27534;DHT22;14973;51.460;7.008;2022-07-29T03:56:32;17.60;99.90
27534;DHT22;14973;51.460;7.008;2022-07-29T03:59:01;17.60;99.90
27534;DHT22;14973;51.460;7.008;2022-07-29T04:01:28;17.60;99.90
27534;DHT22;14973;51.460;7.008;2022-07-29T04:03:54;17.60;99.90
27534;DHT22;14973;51.460;7.008;2022-07-29T04:06:20;17.60;99.90
27534;DHT22;14973;51.460;7.008;2022-07-29T04:08:45;17.60;99.90
27534;DHT22;14973;51.460;7.008;2022-07-29T04:11:11;17.60;99.90
27534;DHT22;14973;51.460;7.008;2022-07-29T04:13:37;17.50;99.90
27534;DHT22;14973;51.460;7.008;2022-07-29T04:16:03;17.50;99.90
27534;DHT22;14973;51.460;7.008;2022-07-29T04:18:29;17.50;99.90
27534;DHT22;14973;51.460;7.008;2022-07-29T04:20:55;17.50;99.90
27534;DHT22;14973;51.460;7.008;2022-07-29T04:23:20;17.50;99.90
27534;DHT22;14973;51.460;7.008;2022-07-29T04:25:46;17.50;99.90
27534;DHT22;14973;51.460;7.008;2022-07-29T04:28:11;17.50;99.90
27534;DHT22;14973;51.460;7.008;2022-07-29T04:30:38;17.50;99.90
27534;DHT22;14973;51.460;7.008;2022-07-29T04:33:06;17.40;99.90
27534;DHT22;14973;51.460;7.008;2022-07-29T04:35:36;17.40;99.90
27534;DHT22;14973;51.460;7.008;2022-07-29T04:38:02;17.40;99.90
27534;DHT22;14973;51.460;7.008;2022-07-29T04:40:28;17.40;99.90
27534;DHT22;14973;51.460;7.008;2022-07-29T04:42:54;17.30;99.90
27534;DHT22;14973;51.460;7.008;2022-07-29T04:45:20;17.40;99.90
27534;DHT22;14973;51.460;7.008;2022-07-29T04:47:45;17.50;99.90
27534;DHT22;14973;51.460;7.008;2022-07-29T04:50:11;17.40;99.90
27534;DHT22;14973;51.460;7.008;2022-07-29T04:52:37;17.40;99.90
27534;DHT22;14973;51.460;7.008;2022-07-29T04:55:04;17.30;99.90
27534;DHT22;14973;51.460;7.008;2022-07-29T04:57:30;17.40;99.90
27534;DHT22;14973;51.460;7.008;2022-07-29T04:59:55;17.40;99.90
27534;DHT22;14973;51.460;7.008;2022-07-29T05:02:21;17.40;99.90
27534;DHT22;14973;51.460;7.008;2022-07-29T05:04:47;17.30;99.90
27534;DHT22;14973;51.460;7.008;2022-07-29T05:07:13;17.40;99.90
27534;DHT22;14973;51.460;7.008;2022-07-29T05:09:39;17.30;99.90
27534;DHT22;14973;51.460;7.008;2022-07-29T05:12:06;17.30;99.90
27534;DHT22;14973;51.460;7.008;2022-07-29T05:14:32;17.30;99.90
27534;DHT22;14973;51.460;7.008;2022-07-29T05:16:57;17.30;99.90
27534;DHT22;14973;51.460;7.008;2022-07-29T05:19:23;17.30;99.90
27534;DHT22;14973;51.460;7.008;2022-07-29T05:21:49;17.30;99.90
27534;DHT22;14973;51.460;7.008;2022-07-29T05:24:15;17.30;99.90
27534;DHT22;14973;51.460;7.008;2022-07-29T05:26:41;17.30;99.90
27534;DHT22;14973;51.460;7.008;2022-07-29T05:29:07;17.30;99.90
27534;DHT22;14973;51.460;7.008;2022-07-29T05:31:32;17.30;99.90
27534;DHT22;14973;51.460;7.008;2022-07-29T05:33:59;17.30;99.90
27534;DHT22;14973;51.460;7.008;2022-07-29T05:36:24;17.30;99.90
27534;DHT22;14973;51.460;7.008;2022-07-29T05:38:50;17.30;99.90
27534;DHT22;14973;51.460;7.008;2022-07-29T05:41:17;17.40;99.90
27534;DHT22;14973;51.460;7.008;2022-07-29T05:43:43;17.40;99.90
27534;DHT22;14973;51.460;7.008;2022-07-29T05:46:09;17.50;99.90
27534;DHT22;14973;51.460;7.008;2022-07-29T05:48:34;17.50;99.90
27534;DHT22;14973;51.460;7.008;2022-07-29T05:51:01;17.60;99.90
27534;DHT22;14973;51.460;7.008;2022-07-29T05:53:26;17.60;99.90
27534;DHT22;14973;51.460;7.008;2022-07-29T05:55:52;17.60;99.90
27534;DHT22;14973;51.460;7.008;2022-07-29T05:58:18;17.60;99.90
27534;DHT22;14973;51.460;7.008;2022-07-29T06:00:44;17.60;99.90
27534;DHT22;14973;51.460;7.008;2022-07-29T06:03:10;17.70;99.90
27534;DHT22;14973;51.460;7.008;2022-07-29T06:05:36;17.70;99.90
27534;DHT22;14973;51.460;7.008;2022-07-29T06:08:01;17.70;99.90
27534;DHT22;14973;51.460;7.008;2022-07-29T06:10:27;17.70;99.90
27534;DHT22;14973;51.460;7.008;2022-07-29T06:12:53;17.60;99.90
27534;DHT22;14973;51.460;7.008;2022-07-29T06:15:19;17.70;99.90
27534;DHT22;14973;51.460;7.008;2022-07-29T06:17:44;17.80;99.90
27534;DHT22;14973;51.460;7.008;2022-07-29T06:20:10;17.70;99.90
27534;DHT22;14973;51.460;7.008;2022-07-29T06:22:36;17.60;99.90
27534;DHT22;14973;51.460;7.008;2022-07-29T06:25:02;17.50;99.90
27534;DHT22;14973;51.460;7.008;2022-07-29T06:27:29;17.20;99.90
27534;DHT22;14973;51.460;7.008;2022-07-29T06:29:56;17.10;99.90
27534;DHT22;14973;51.460;7.008;2022-07-29T06:32:21;16.90;99.90
27534;DHT22;14973;51.460;7.008;2022-07-29T06:34:47;16.90;99.90
27534;DHT22;14973;51.460;7.008;2022-07-29T06:37:13;16.80;99.90
27534;DHT22;14973;51.460;7.008;2022-07-29T06:39:39;16.90;99.90
27534;DHT22;14973;51.460;7.008;2022-07-29T06:42:05;17.00;99.90
27534;DHT22;14973;51.460;7.008;2022-07-29T06:44:31;17.10;99.90
27534;DHT22;14973;51.460;7.008;2022-07-29T06:46:59;17.30;99.90
27534;DHT22;14973;51.460;7.008;2022-07-29T06:49:25;17.30;99.90
27534;DHT22;14973;51.460;7.008;2022-07-29T06:51:53;17.50;99.90
27534;DHT22;14973;51.460;7.008;2022-07-29T06:54:18;17.60;99.90
27534;DHT22;14973;51.460;7.008;2022-07-29T06:56:44;17.80;99.90
27534;DHT22;14973;51.460;7.008;2022-07-29T06:59:11;18.00;99.90
27534;DHT22;14973;51.460;7.008;2022-07-29T07:01:39;18.20;99.90
27534;DHT22;14973;51.460;7.008;2022-07-29T07:04:05;18.60;99.90
27534;DHT22;14973;51.460;7.008;2022-07-29T07:06:31;18.60;99.90
27534;DHT22;14973;51.460;7.008;2022-07-29T07:08:56;18.70;99.90
27534;DHT22;14973;51.460;7.008;2022-07-29T07:11:22;19.00;99.90
27534;DHT22;14973;51.460;7.008;2022-07-29T07:13:48;19.10;99.90
27534;DHT22;14973;51.460;7.008;2022-07-29T07:16:13;19.20;99.90
27534;DHT22;14973;51.460;7.008;2022-07-29T07:18:39;19.00;99.90
27534;DHT22;14973;51.460;7.008;2022-07-29T07:21:05;19.00;99.90
27534;DHT22;14973;51.460;7.008;2022-07-29T07:23:31;18.90;99.90
27534;DHT22;14973;51.460;7.008;2022-07-29T07:25:56;19.00;99.90
27534;DHT22;14973;51.460;7.008;2022-07-29T07:28:22;19.00;99.90
27534;DHT22;14973;51.460;7.008;2022-07-29T07:30:48;18.90;99.90
27534;DHT22;14973;51.460;7.008;2022-07-29T07:33:13;18.80;99.90
27534;DHT22;14973;51.460;7.008;2022-07-29T07:35:40;19.00;99.90
27534;DHT22;14973;51.460;7.008;2022-07-29T07:38:06;19.30;99.90
27534;DHT22;14973;51.460;7.008;2022-07-29T07:40:32;19.40;99.90
27534;DHT22;14973;51.460;7.008;2022-07-29T07:42:58;19.50;99.90
27534;DHT22;14973;51.460;7.008;2022-07-29T07:45:24;19.50;99.90
27534;DHT22;14973;51.460;7.008;2022-07-29T07:47:50;19.70;99.90
27534;DHT22;14973;51.460;7.008;2022-07-29T07:50:15;19.90;99.90
27534;DHT22;14973;51.460;7.008;2022-07-29T07:52:55;20.10;99.90
27534;DHT22;14973;51.460;7.008;2022-07-29T07:55:24;20.10;99.90
27534;DHT22;14973;51.460;7.008;2022-07-29T07:57:50;20.20;99.90
27534;DHT22;14973;51.460;7.008;2022-07-29T08:00:16;20.30;99.90
27534;DHT22;14973;51.460;7.008;2022-07-29T08:02:42;20.50;99.90
27534;DHT22;14973;51.460;7.008;2022-07-29T08:05:09;20.70;99.90
27534;DHT22;14973;51.460;7.008;2022-07-29T08:07:34;20.90;99.90
27534;DHT22;14973;51.460;7.008;2022-07-29T08:10:00;21.10;99.90
27534;DHT22;14973;51.460;7.008;2022-07-29T08:12:26;21.20;99.90
27534;DHT22;14973;51.460;7.008;2022-07-29T08:14:52;21.40;99.90
27534;DHT22;14973;51.460;7.008;2022-07-29T08:17:17;21.50;99.90
27534;DHT22;14973;51.460;7.008;2022-07-29T08:19:43;21.50;99.90
27534;DHT22;14973;51.460;7.008;2022-07-29T08:22:09;21.20;99.90
27534;DHT22;14973;51.460;7.008;2022-07-29T08:24:35;21.00;99.90
27534;DHT22;14973;51.460;7.008;2022-07-29T08:27:13;21.00;99.90
27534;DHT22;14973;51.460;7.008;2022-07-29T08:29:39;20.90;99.90
27534;DHT22;14973;51.460;7.008;2022-07-29T08:32:05;20.70;99.90
27534;DHT22;14973;51.460;7.008;2022-07-29T08:34:31;20.70;99.90
27534;DHT22;14973;51.460;7.008;2022-07-29T08:36:57;20.70;99.90
27534;DHT22;14973;51.460;7.008;2022-07-29T08:39:23;20.50;99.90
27534;DHT22;14973;51.460;7.008;2022-07-29T08:41:49;20.20;99.90
27534;DHT22;14973;51.460;7.008;2022-07-29T08:44:17;19.90;99.90
27534;DHT22;14973;51.460;7.008;2022-07-29T08:46:43;19.70;99.90
27534;DHT22;14973;51.460;7.008;2022-07-29T08:49:09;19.60;99.90
27534;DHT22;14973;51.460;7.008;2022-07-29T08:51:36;19.50;99.90
27534;DHT22;14973;51.460;7.008;2022-07-29T08:54:02;19.50;99.90
27534;DHT22;14973;51.460;7.008;2022-07-29T08:56:29;19.50;99.90
27534;DHT22;14973;51.460;7.008;2022-07-29T08:58:58;19.40;99.90
27534;DHT22;14973;51.460;7.008;2022-07-29T09:01:25;19.40;99.90
27534;DHT22;14973;51.460;7.008;2022-07-29T09:03:55;19.50;99.90
27534;DHT22;14973;51.460;7.008;2022-07-29T09:06:22;19.60;99.90
27534;DHT22;14973;51.460;7.008;2022-07-29T09:08:49;19.70;99.90
27534;DHT22;14973;51.460;7.008;2022-07-29T09:11:14;19.70;99.90
27534;DHT22;14973;51.460;7.008;2022-07-29T09:13:40;19.80;99.90
27534;DHT22;14973;51.460;7.008;2022-07-29T09:16:06;19.70;99.90
27534;DHT22;14973;51.460;7.008;2022-07-29T09:18:36;19.70;99.90
27534;DHT22;14973;51.460;7.008;2022-07-29T09:21:04;19.80;99.90
27534;DHT22;14973;51.460;7.008;2022-07-29T09:24:11;19.80;99.90
27534;DHT22;14973;51.460;7.008;2022-07-29T09:26:39;19.60;99.90
27534;DHT22;14973;51.460;7.008;2022-07-29T09:29:11;19.40;99.90
27534;DHT22;14973;51.460;7.008;2022-07-29T09:31:45;19.20;99.90
27534;DHT22;14973;51.460;7.008;2022-07-29T09:34:12;19.00;99.90
27534;DHT22;14973;51.460;7.008;2022-07-29T09:36:43;18.80;99.90
27534;DHT22;14973;51.460;7.008;2022-07-29T09:39:10;18.30;99.90
27534;DHT22;14973;51.460;7.008;2022-07-29T09:41:53;17.90;99.90
27534;DHT22;14973;51.460;7.008;2022-07-29T09:44:20;17.50;99.90
27534;DHT22;14973;51.460;7.008;2022-07-29T09:47:12;17.30;99.90
27534;DHT22;14973;51.460;7.008;2022-07-29T09:49:57;17.20;99.90
27534;DHT22;14973;51.460;7.008;2022-07-29T09:52:25;16.90;99.90
27534;DHT22;14973;51.460;7.008;2022-07-29T09:54:51;16.80;99.90
27534;DHT22;14973;51.460;7.008;2022-07-29T09:57:27;16.80;99.90
27534;DHT22;14973;51.460;7.008;2022-07-29T10:00:04;16.70;99.90
27534;DHT22;14973;51.460;7.008;2022-07-29T10:02:34;16.60;99.90
27534;DHT22;14973;51.460;7.008;2022-07-29T10:05:03;16.70;99.90
27534;DHT22;14973;51.460;7.008;2022-07-29T10:07:48;16.70;99.90
27534;DHT22;14973;51.460;7.008;2022-07-29T10:10:30;16.70;99.90
27534;DHT22;14973;51.460;7.008;2022-07-29T10:13:02;16.80;99.90
27534;DHT22;14973;51.460;7.008;2022-07-29T10:15:33;16.90;99.90
27534;DHT22;14973;51.460;7.008;2022-07-29T10:18:02;17.10;99.90
27534;DHT22;14973;51.460;7.008;2022-07-29T10:20:28;17.20;99.90
27534;DHT22;14973;51.460;7.008;2022-07-29T10:22:54;17.30;99.90
27534;DHT22;14973;51.460;7.008;2022-07-29T10:25:21;17.40;99.90
27534;DHT22;14973;51.460;7.008;2022-07-29T10:27:48;17.60;99.90
27534;DHT22;14973;51.460;7.008;2022-07-29T10:30:15;17.80;99.90
27534;DHT22;14973;51.460;7.008;2022-07-29T10:35:44;18.10;99.90
27534;DHT22;14973;51.460;7.008;2022-07-29T10:38:15;18.20;99.90
27534;DHT22;14973;51.460;7.008;2022-07-29T10:46:40;18.70;99.90
27534;DHT22;14973;51.460;7.008;2022-07-29T10:49:14;18.90;99.90
27534;DHT22;14973;51.460;7.008;2022-07-29T10:52:05;19.10;99.90
27534;DHT22;14973;51.460;7.008;2022-07-29T10:57:27;19.00;99.90
27534;DHT22;14973;51.460;7.008;2022-07-29T11:05:07;19.60;99.90
27534;DHT22;14973;51.460;7.008;2022-07-29T11:07:34;19.70;99.90
27534;DHT22;14973;51.460;7.008;2022-07-29T11:15:08;20.60;99.90
27534;DHT22;14973;51.460;7.008;2022-07-29T11:23:29;21.30;99.90
27534;DHT22;14973;51.460;7.008;2022-07-29T11:26:14;21.50;99.90
27534;DHT22;14973;51.460;7.008;2022-07-29T11:45:08;23.60;99.90
27534;DHT22;14973;51.460;7.008;2022-07-29T11:47:39;24.30;99.90
27534;DHT22;14973;51.460;7.008;2022-07-29T11:50:11;24.50;99.90
27534;DHT22;14973;51.460;7.008;2022-07-29T11:52:39;24.80;99.90
27534;DHT22;14973;51.460;7.008;2022-07-29T11:55:10;25.40;99.90
27534;DHT22;14973;51.460;7.008;2022-07-29T11:57:45;25.80;99.90
27534;DHT22;14973;51.460;7.008;2022-07-29T12:00:11;26.00;99.90
27534;DHT22;14973;51.460;7.008;2022-07-29T12:02:43;26.10;99.90
27534;DHT22;14973;51.460;7.008;2022-07-29T12:05:10;26.20;99.90
27534;DHT22;14973;51.460;7.008;2022-07-29T12:07:39;25.90;99.90
27534;DHT22;14973;51.460;7.008;2022-07-29T12:10:05;25.50;99.90
27534;DHT22;14973;51.460;7.008;2022-07-29T12:12:32;25.70;99.90
27534;DHT22;14973;51.460;7.008;2022-07-29T12:15:09;25.80;99.90
27534;DHT22;14973;51.460;7.008;2022-07-29T12:17:35;25.70;99.60
27534;DHT22;14973;51.460;7.008;2022-07-29T12:20:03;25.70;98.40
27534;DHT22;14973;51.460;7.008;2022-07-29T12:22:34;25.50;98.40
27534;DHT22;14973;51.460;7.008;2022-07-29T12:25:10;25.30;98.70
27534;DHT22;14973;51.460;7.008;2022-07-29T12:27:37;25.30;98.50
27534;DHT22;14973;51.460;7.008;2022-07-29T12:30:09;25.10;98.50
27534;DHT22;14973;51.460;7.008;2022-07-29T12:33:01;25.30;98.80
27534;DHT22;14973;51.460;7.008;2022-07-29T12:35:35;25.60;98.80
27534;DHT22;14973;51.460;7.008;2022-07-29T12:38:01;25.60;98.30
27534;DHT22;14973;51.460;7.008;2022-07-29T12:40:26;25.60;97.60
27534;DHT22;14973;51.460;7.008;2022-07-29T12:43:06;25.50;97.90
27534;DHT22;14973;51.460;7.008;2022-07-29T12:45:37;25.20;98.20
27534;DHT22;14973;51.460;7.008;2022-07-29T12:48:03;25.40;98.70
27534;DHT22;14973;51.460;7.008;2022-07-29T12:50:29;25.80;98.30
27534;DHT22;14973;51.460;7.008;2022-07-29T12:53:11;26.10;98.20
27534;DHT22;14973;51.460;7.008;2022-07-29T12:55:44;26.50;97.30
27534;DHT22;14973;51.460;7.008;2022-07-29T12:58:25;26.60;97.00
27534;DHT22;14973;51.460;7.008;2022-07-29T13:01:03;26.70;96.40
27534;DHT22;14973;51.460;7.008;2022-07-29T13:03:41;27.10;96.20
27534;DHT22;14973;51.460;7.008;2022-07-29T13:06:06;27.00;95.60
27534;DHT22;14973;51.460;7.008;2022-07-29T13:08:32;26.80;96.10
27534;DHT22;14973;51.460;7.008;2022-07-29T13:10:58;26.90;95.60
27534;DHT22;14973;51.460;7.008;2022-07-29T13:13:23;26.60;95.90
27534;DHT22;14973;51.460;7.008;2022-07-29T13:16:05;26.60;96.20
27534;DHT22;14973;51.460;7.008;2022-07-29T13:18:34;26.50;95.20
27534;DHT22;14973;51.460;7.008;2022-07-29T13:21:11;26.40;95.60
27534;DHT22;14973;51.460;7.008;2022-07-29T13:23:37;26.30;95.60
27534;DHT22;14973;51.460;7.008;2022-07-29T13:26:10;26.60;95.90
27534;DHT22;14973;51.460;7.008;2022-07-29T13:28:37;27.00;95.50
27534;DHT22;14973;51.460;7.008;2022-07-29T13:31:02;26.60;95.10
27534;DHT22;14973;51.460;7.008;2022-07-29T13:33:28;26.60;95.20
27534;DHT22;14973;51.460;7.008;2022-07-29T13:35:54;26.50;96.00
27534;DHT22;14973;51.460;7.008;2022-07-29T13:38:20;27.00;96.10
27534;DHT22;14973;51.460;7.008;2022-07-29T13:40:46;27.10;95.40
27534;DHT22;14973;51.460;7.008;2022-07-29T13:43:12;27.30;95.50
27534;DHT22;14973;51.460;7.008;2022-07-29T13:45:37;27.50;95.60
27534;DHT22;14973;51.460;7.008;2022-07-29T13:48:03;27.50;95.50
27534;DHT22;14973;51.460;7.008;2022-07-29T13:50:29;27.60;95.60
27534;DHT22;14973;51.460;7.008;2022-07-29T13:52:55;27.70;94.60
27534;DHT22;14973;51.460;7.008;2022-07-29T13:55:21;27.70;95.20
27534;DHT22;14973;51.460;7.008;2022-07-29T13:57:46;28.10;94.90
27534;DHT22;14973;51.460;7.008;2022-07-29T14:00:13;28.40;94.50
27534;DHT22;14973;51.460;7.008;2022-07-29T14:02:40;28.40;94.30
27534;DHT22;14973;51.460;7.008;2022-07-29T14:05:07;28.40;94.20
27534;DHT22;14973;51.460;7.008;2022-07-29T14:07:33;28.40;94.40
27534;DHT22;14973;51.460;7.008;2022-07-29T14:09:59;28.10;94.70
27534;DHT22;14973;51.460;7.008;2022-07-29T14:12:24;28.20;94.90
27534;DHT22;14973;51.460;7.008;2022-07-29T14:14:50;28.00;95.20
27534;DHT22;14973;51.460;7.008;2022-07-29T14:17:16;28.00;94.70
27534;DHT22;14973;51.460;7.008;2022-07-29T14:19:42;27.70;94.70
27534;DHT22;14973;51.460;7.008;2022-07-29T14:22:08;27.30;94.80
27534;DHT22;14973;51.460;7.008;2022-07-29T14:24:35;26.70;95.70
27534;DHT22;14973;51.460;7.008;2022-07-29T14:27:03;26.60;96.20
27534;DHT22;14973;51.460;7.008;2022-07-29T14:29:29;26.80;96.20
27534;DHT22;14973;51.460;7.008;2022-07-29T14:31:54;27.00;96.20
27534;DHT22;14973;51.460;7.008;2022-07-29T14:34:20;27.10;96.20
27534;DHT22;14973;51.460;7.008;2022-07-29T14:36:45;27.20;96.40
27534;DHT22;14973;51.460;7.008;2022-07-29T14:39:11;27.00;97.00
27534;DHT22;14973;51.460;7.008;2022-07-29T14:41:37;27.00;96.70
27534;DHT22;14973;51.460;7.008;2022-07-29T14:44:03;27.00;96.70
27534;DHT22;14973;51.460;7.008;2022-07-29T14:46:29;26.80;96.90
27534;DHT22;14973;51.460;7.008;2022-07-29T14:48:54;26.80;97.10
27534;DHT22;14973;51.460;7.008;2022-07-29T14:51:20;26.60;97.40
27534;DHT22;14973;51.460;7.008;2022-07-29T14:53:46;26.60;97.20
27534;DHT22;14973;51.460;7.008;2022-07-29T14:56:12;26.60;97.40
27534;DHT22;14973;51.460;7.008;2022-07-29T14:58:37;26.50;97.50
27534;DHT22;14973;51.460;7.008;2022-07-29T15:01:03;26.60;97.40
27534;DHT22;14973;51.460;7.008;2022-07-29T15:03:28;26.60;97.20
27534;DHT22;14973;51.460;7.008;2022-07-29T15:05:54;26.40;97.50
27534;DHT22;14973;51.460;7.008;2022-07-29T15:08:20;26.20;97.70
27534;DHT22;14973;51.460;7.008;2022-07-29T15:10:46;26.20;97.90
27534;DHT22;14973;51.460;7.008;2022-07-29T15:13:12;26.10;98.00
27534;DHT22;14973;51.460;7.008;2022-07-29T15:15:37;26.20;98.20
27534;DHT22;14973;51.460;7.008;2022-07-29T15:18:03;26.20;97.70
27534;DHT22;14973;51.460;7.008;2022-07-29T15:20:29;26.30;97.80
27534;DHT22;14973;51.460;7.008;2022-07-29T15:22:55;26.30;97.90
27534;DHT22;14973;51.460;7.008;2022-07-29T15:25:22;26.60;97.50
27534;DHT22;14973;51.460;7.008;2022-07-29T15:27:48;26.60;97.50
27534;DHT22;14973;51.460;7.008;2022-07-29T15:30:14;26.60;97.60
27534;DHT22;14973;51.460;7.008;2022-07-29T15:32:42;26.70;97.30
27534;DHT22;14973;51.460;7.008;2022-07-29T15:35:08;26.60;97.30
27534;DHT22;14973;51.460;7.008;2022-07-29T15:37:36;26.40;97.40
27534;DHT22;14973;51.460;7.008;2022-07-29T15:40:02;26.20;97.70
27534;DHT22;14973;51.460;7.008;2022-07-29T15:42:27;26.00;97.70
27534;DHT22;14973;51.460;7.008;2022-07-29T15:44:53;25.90;98.40
27534;DHT22;14973;51.460;7.008;2022-07-29T15:47:19;26.00;98.50
27534;DHT22;14973;51.460;7.008;2022-07-29T15:49:44;26.10;97.90
27534;DHT22;14973;51.460;7.008;2022-07-29T15:52:10;26.00;97.80
27534;DHT22;14973;51.460;7.008;2022-07-29T15:54:37;26.00;97.80
27534;DHT22;14973;51.460;7.008;2022-07-29T15:57:04;26.10;97.50
27534;DHT22;14973;51.460;7.008;2022-07-29T15:59:31;26.20;97.20
27534;DHT22;14973;51.460;7.008;2022-07-29T16:01:57;26.20;97.70
27534;DHT22;14973;51.460;7.008;2022-07-29T16:04:22;26.40;97.30
27534;DHT22;14973;51.460;7.008;2022-07-29T16:06:48;26.70;96.90
27534;DHT22;14973;51.460;7.008;2022-07-29T16:09:15;26.80;96.80
27534;DHT22;14973;51.460;7.008;2022-07-29T16:11:41;26.70;96.60
27534;DHT22;14973;51.460;7.008;2022-07-29T16:14:07;26.70;96.70
27534;DHT22;14973;51.460;7.008;2022-07-29T16:16:35;26.90;96.80
27534;DHT22;14973;51.460;7.008;2022-07-29T16:19:01;26.90;96.60
27534;DHT22;14973;51.460;7.008;2022-07-29T16:21:27;27.00;96.30
27534;DHT22;14973;51.460;7.008;2022-07-29T16:23:52;26.90;96.30
27534;DHT22;14973;51.460;7.008;2022-07-29T16:26:18;26.90;96.50
27534;DHT22;14973;51.460;7.008;2022-07-29T16:28:44;26.70;95.70
27534;DHT22;14973;51.460;7.008;2022-07-29T16:31:09;26.70;95.70
27534;DHT22;14973;51.460;7.008;2022-07-29T16:33:35;26.70;95.50